Tomahawk, Kentucky
Current Conditions -  °F | °C
As of 3:15 AM on Thursday 29 Jan 2015 (Local Time) from KSJS Reporting Station
Clear Clear  
Wind Chill: 32°   Ceiling: Unl
Heat Index: 32°   Visibility: 10mi
Dew Point: 21°   Wind: 0mph
Humidity: 63%   Direction: NA
Pressure: 30.13"   Gusts: NA
Location:  37.83°N, 82.62°W
Report Text: KSJS 290815Z AUTO 00000KT 10SM CLR 00/M06 A3013 RMK AO2 T00011063
Loading
Personal Weather Stations






























Interactive Weather Map New forecast layout! Learn more

10-Day Weather Forecast

Advertisements
Track Severe Weather on mobile